Ashotsk, Armenia

2:36 AM AMT on August 02, 2014 (GMT +0400)
SHIRAK (UDSG) Elev 5000 ft | 40.75 °N, 43.86 °E | Change Station

Current weather conditions updated 6 minutes ago

Partly Cloudy
Partly Cloudy
66 °F
Feels Like 66 °F
N
0
Wind Variable Wind from North

Today is forecast to be nearly the same temperature as yesterday.

Today
High -- | Low -- °F
--% Chance of Precip.
Yesterday
High -- | Low -- °F
Precip. -- in
6:01 AM 8:20 PM
Waxing Crescent, 30% visible
Pressure 29.98 in
Visibility 6.2 miles
Clouds Few 5000 ft
Dew Point 46 °F
Humidity 49%
Rainfall 0.00 in
Snow Depth Not available.
UV 0 out of 12
Pollen Not available.
Air Quality Not available.
Flu Activity Not available.
METAR UDSG 012230Z 00000MPS 9999 FEW050 19/08 Q1015 R02/CLRD70 NOSIG

More Conditions Fewer Conditions

Pressure 29.98 in
Visibility 6.2 miles
Clouds Few 5000 ft
Dew Point 46 °F
Humidity 49%
Rainfall 0.00 in
Snow Depth Not available.
UV 0 out of 12
Pollen Not available.
Air Quality Not available.
Flu Activity Not available.
METAR UDSG 012230Z 00000MPS 9999 FEW050 19/08 Q1015 R02/CLRD70 NOSIG

More Conditions Fewer Conditions

10-Day Weather Forecast

Almanac

Astronomy

Aug. 02, 2014 Rise Set
Actual Time 6:01 AM AMT 8:20 PM AMT
Civil Twilight 5:30 AM AMT 8:50 PM AMT
Nautical Twilight 4:52 AM AMT 9:28 PM AMT
Astronomical Twilight 4:10 AM AMT 10:10 PM AMT
Moon 12:04 PM AMT (8/2) 11:22 PM AMT (8/2)
Length of Visible Light 15h 20m
Length of Day
14h 18m
Tomorrow will be 2m 6s shorter.
Waxing Crescent, 30% of the Moon is Illuminated
Aug 1
Waxing Crescent
Aug 3
First Quarter
Aug 10
Full
Aug 17
Last Quarter
Aug 25
New

Yesterday's Extremes

Country Highs Country Lows

Community

WunderPhotos

Upload Photos

1,739,735 photos uploaded!

Nearby

Snow Depth

Not available.

Earthquake Activity

City Distance Mag. Time & Date
No recent earthquake activity has been reported nearby.
Minimum magnitude displayed is 2.5.

Coastal Water Temperatures

Place Temperature
No Stations Reporting

Nearby Weather Stations

There are no personal weather stations in this area.